Time;durP1;ratioP1;P1;durP2;ratioP2;P2;SDS_P1;SDS_P2;PMS_P1;PMS_P2;Temp;Humidity;BMP_temperature;BMP_pressure;BME280_temperature;BME280_humidity;BME280_pressure;Samples;Min_cycle;Max_cycle;Signal;HPM_P1;HPM_P2
2023/04/02 00:01:26;;;;;;;;;;;9.70;95.40;;;;;;5035563;28;20830;-77
2023/04/02 00:04:04;;;;;;;;;;;9.70;95.40;;;;;;5033107;28;20629;-77
2023/04/02 00:06:38;;;;;;;;;;;9.70;95.40;;;;;;5036210;28;19951;-78
2023/04/02 00:09:21;;;;;;;;;;;9.70;95.40;;;;;;5035326;28;19940;-76
2023/04/02 00:11:48;;;;;;;;;;;9.70;95.40;;;;;;5037713;28;19943;-78
2023/04/02 00:14:16;;;;;;;;;;;9.70;95.40;;;;;;5036527;28;19937;-78
2023/04/02 00:16:43;;;;;;;;;;;9.70;95.40;;;;;;5033808;28;19944;-76
2023/04/02 00:19:13;;;;;;;;;;;9.70;95.40;;;;;;5046202;28;19976;-76
2023/04/02 00:21:42;;;;;;;;;;;9.70;95.50;;;;;;5042718;28;19929;-76
2023/04/02 00:24:13;;;;;;;;;;;9.70;95.50;;;;;;5041596;28;20427;-77
2023/04/02 00:26:43;;;;;;;;;;;9.60;95.50;;;;;;5043274;28;19935;-77
2023/04/02 00:29:10;;;;;;;;;;;9.70;95.60;;;;;;5053628;28;19928;-77
2023/04/02 00:31:38;;;;;;;;;;;9.70;95.60;;;;;;5050676;28;19928;-76
2023/04/02 00:34:07;;;;;;;;;;;9.70;95.70;;;;;;5049466;28;19937;-78
2023/04/02 00:36:34;;;;;;;;;;;9.70;95.70;;;;;;5050822;28;19933;-77
2023/04/02 00:39:02;;;;;;;;;;;9.70;95.70;;;;;;5056803;28;19929;-77
2023/04/02 00:41:30;;;;;;;;;;;9.70;95.70;;;;;;5050892;28;19950;-77
2023/04/02 00:43:59;;;;;;;;;;;9.60;95.70;;;;;;5052552;28;19939;-77
2023/04/02 00:46:28;;;;;;;;;;;9.60;95.80;;;;;;5055800;28;20029;-78
2023/04/02 00:48:58;;;;;;;;;;;9.70;95.90;;;;;;5048133;28;19939;-77
2023/04/02 00:51:27;;;;;;;;;;;9.60;95.80;;;;;;5039818;28;20518;-77
2023/04/02 00:53:55;;;;;;;;;;;9.60;95.80;;;;;;5035832;28;19936;-77
2023/04/02 00:56:25;;;;;;;;;;;9.60;95.80;;;;;;5039940;28;19940;-77
2023/04/02 00:58:53;;;;;;;;;;;9.60;95.80;;;;;;5039857;28;19929;-77
2023/04/02 01:01:22;;;;;;;;;;;9.60;95.80;;;;;;5038545;28;19937;-76
2023/04/02 01:03:56;;;;;;;;;;;9.70;95.90;;;;;;5033641;28;19952;-76
2023/04/02 01:06:29;;;;;;;;;;;9.60;95.80;;;;;;5039785;28;20413;-77
2023/04/02 01:09:03;;;;;;;;;;;9.60;95.80;;;;;;5038448;28;19932;-77
2023/04/02 01:11:38;;;;;;;;;;;9.60;95.80;;;;;;5041374;28;19933;-77
2023/04/02 01:14:08;;;;;;;;;;;9.60;95.80;;;;;;5040195;28;19933;-77
2023/04/02 01:16:41;;;;;;;;;;;9.60;95.80;;;;;;5037855;28;19933;-77
2023/04/02 01:19:17;;;;;;;;;;;9.60;95.80;;;;;;5035165;28;19964;-76
2023/04/02 01:21:54;;;;;;;;;;;9.60;95.80;;;;;;5037861;28;20039;-76
2023/04/02 01:24:21;;;;;;;;;;;9.60;95.80;;;;;;5037733;28;20743;-76
2023/04/02 01:26:51;;;;;;;;;;;9.60;95.80;;;;;;5044458;28;20767;-77
2023/04/02 01:29:21;;;;;;;;;;;9.60;95.70;;;;;;5049284;28;19929;-77
2023/04/02 01:31:49;;;;;;;;;;;9.60;95.70;;;;;;5054816;28;19937;-77
2023/04/02 01:34:17;;;;;;;;;;;9.60;95.70;;;;;;5044714;28;19940;-77
2023/04/02 01:36:51;;;;;;;;;;;9.50;95.70;;;;;;5042539;28;20414;-77
2023/04/02 01:39:22;;;;;;;;;;;9.50;95.70;;;;;;5043660;28;20024;-77
2023/04/02 01:41:52;;;;;;;;;;;9.60;95.70;;;;;;5037699;28;20393;-76
2023/04/02 01:44:24;;;;;;;;;;;9.50;95.60;;;;;;5038743;28;20193;-75
2023/04/02 01:46:50;;;;;;;;;;;9.60;95.60;;;;;;5029057;28;19936;-76
2023/04/02 01:49:18;;;;;;;;;;;9.50;95.60;;;;;;5034853;28;19933;-76
2023/04/02 01:51:47;;;;;;;;;;;9.50;95.60;;;;;;5038103;28;20167;-77
2023/04/02 01:54:15;;;;;;;;;;;9.50;95.60;;;;;;5040524;28;19929;-77
2023/04/02 01:56:43;;;;;;;;;;;9.50;95.60;;;;;;5032078;28;19999;-77
2023/04/02 01:59:10;;;;;;;;;;;9.50;95.30;;;;;;5038124;28;19938;-76
2023/04/02 02:01:43;;;;;;;;;;;9.50;95.60;;;;;;5037475;28;19976;-77
2023/04/02 02:04:11;;;;;;;;;;;9.50;95.50;;;;;;5044330;28;19929;-76
2023/04/02 02:06:38;;;;;;;;;;;9.50;95.50;;;;;;5035013;28;19940;-76
2023/04/02 02:09:06;;;;;;;;;;;9.50;95.50;;;;;;5035867;28;19936;-77
2023/04/02 02:11:35;;;;;;;;;;;9.50;95.50;;;;;;5036762;28;19933;-77
2023/04/02 02:14:02;;;;;;;;;;;9.50;95.50;;;;;;5038937;28;19935;-75
2023/04/02 02:16:30;;;;;;;;;;;9.50;95.50;;;;;;5041511;28;20394;-76
2023/04/02 02:19:00;;;;;;;;;;;9.50;95.50;;;;;;5042197;28;19932;-77
2023/04/02 02:21:33;;;;;;;;;;;9.40;95.50;;;;;;5041141;28;19929;-77
2023/04/02 02:24:01;;;;;;;;;;;9.40;95.50;;;;;;5042222;28;19940;-76
2023/04/02 02:26:28;;;;;;;;;;;9.50;95.50;;;;;;5041053;28;19929;-77
2023/04/02 02:28:56;;;;;;;;;;;9.40;95.50;;;;;;5048511;28;19932;-76
2023/04/02 02:31:26;;;;;;;;;;;9.40;95.50;;;;;;5046413;28;19983;-76
2023/04/02 02:33:56;;;;;;;;;;;9.50;95.50;;;;;;5041885;28;19936;-76
2023/04/02 02:36:26;;;;;;;;;;;9.50;95.50;;;;;;5045900;28;19929;-75
2023/04/02 02:38:55;;;;;;;;;;;9.40;95.50;;;;;;5043637;28;20018;-78
2023/04/02 02:41:25;;;;;;;;;;;9.40;95.60;;;;;;5043122;28;20315;-78
2023/04/02 02:43:55;;;;;;;;;;;9.30;95.50;;;;;;5043081;28;20118;-77
2023/04/02 02:46:23;;;;;;;;;;;9.40;95.60;;;;;;5042632;28;19929;-76
2023/04/02 02:48:51;;;;;;;;;;;9.30;95.60;;;;;;5038836;28;19929;-77
2023/04/02 02:51:21;;;;;;;;;;;9.40;95.60;;;;;;5041535;28;19929;-78
2023/04/02 02:53:51;;;;;;;;;;;9.40;95.60;;;;;;5040194;28;19936;-75
2023/04/02 02:56:18;;;;;;;;;;;9.40;95.60;;;;;;5039098;28;19928;-78
2023/04/02 02:58:45;;;;;;;;;;;9.40;95.60;;;;;;5041145;28;20318;-76
2023/04/02 03:01:12;;;;;;;;;;;9.40;95.60;;;;;;5036181;28;19939;-78
2023/04/02 03:03:39;;;;;;;;;;;9.40;95.60;;;;;;5043234;28;19932;-76
2023/04/02 03:06:07;;;;;;;;;;;9.40;95.60;;;;;;5042003;28;19929;-76
2023/04/02 03:08:37;;;;;;;;;;;9.40;95.60;;;;;;5039286;28;20028;-76
2023/04/02 03:11:07;;;;;;;;;;;9.40;95.70;;;;;;5038498;28;20025;-77
2023/04/02 03:13:37;;;;;;;;;;;9.40;95.70;;;;;;5039520;28;19929;-76
2023/04/02 03:16:08;;;;;;;;;;;9.40;95.70;;;;;;5043890;28;19933;-76
2023/04/02 03:18:37;;;;;;;;;;;9.40;95.70;;;;;;5042958;28;19932;-75
2023/04/02 03:21:06;;;;;;;;;;;9.40;95.80;;;;;;5045271;28;19937;-77
2023/04/02 03:23:36;;;;;;;;;;;9.40;95.80;;;;;;5039797;28;19928;-77
2023/04/02 03:26:06;;;;;;;;;;;9.40;95.80;;;;;;5037141;28;19939;-76
2023/04/02 03:28:37;;;;;;;;;;;9.40;95.80;;;;;;5042486;28;19935;-77
2023/04/02 03:31:05;;;;;;;;;;;9.40;95.80;;;;;;5038312;28;19940;-77
2023/04/02 03:33:33;;;;;;;;;;;9.40;95.90;;;;;;5036613;28;19940;-78
2023/04/02 03:36:02;;;;;;;;;;;9.40;95.90;;;;;;5040238;28;19935;-77
2023/04/02 03:38:31;;;;;;;;;;;9.30;96.00;;;;;;5046964;28;19944;-77
2023/04/02 03:41:03;;;;;;;;;;;9.30;96.00;;;;;;5035707;28;19928;-78
2023/04/02 03:43:31;;;;;;;;;;;9.30;96.10;;;;;;5032974;28;19933;-77
2023/04/02 03:46:05;;;;;;;;;;;9.30;96.10;;;;;;5034366;28;19932;-76
2023/04/02 03:48:34;;;;;;;;;;;9.30;96.10;;;;;;5036723;28;19928;-78
2023/04/02 03:51:05;;;;;;;;;;;9.30;96.20;;;;;;5035893;28;19929;-77
2023/04/02 03:53:31;;;;;;;;;;;9.30;96.20;;;;;;5034773;28;19928;-78
2023/04/02 03:55:58;;;;;;;;;;;9.30;96.20;;;;;;5034394;28;20016;-77
2023/04/02 03:58:28;;;;;;;;;;;9.30;96.20;;;;;;5041792;28;19940;-79
2023/04/02 04:00:58;;;;;;;;;;;9.30;96.30;;;;;;5041434;28;19929;-77
2023/04/02 04:03:29;;;;;;;;;;;9.30;96.40;;;;;;5040325;28;19935;-78
2023/04/02 04:05:57;;;;;;;;;;;9.30;96.40;;;;;;5039259;28;20016;-77
2023/04/02 04:08:25;;;;;;;;;;;9.30;96.40;;;;;;5037962;28;19928;-77
2023/04/02 04:10:52;;;;;;;;;;;9.30;96.40;;;;;;5037548;28;20402;-77
2023/04/02 04:13:22;;;;;;;;;;;9.30;96.40;;;;;;5038772;28;19929;-77
2023/04/02 04:15:51;;;;;;;;;;;9.30;96.40;;;;;;5035193;28;19936;-77
2023/04/02 04:18:33;;;;;;;;;;;9.30;96.40;;;;;;5049303;28;19981;-78
2023/04/02 04:21:03;;;;;;;;;;;9.30;96.50;;;;;;5049001;28;19928;-78
2023/04/02 04:23:31;;;;;;;;;;;9.30;96.50;;;;;;5052953;28;19928;-78
2023/04/02 04:26:00;;;;;;;;;;;9.20;96.50;;;;;;5041468;28;19936;-78
2023/04/02 04:28:31;;;;;;;;;;;9.20;96.50;;;;;;5052475;28;19932;-78
2023/04/02 04:31:00;;;;;;;;;;;9.20;96.50;;;;;;5046367;28;20454;-78
2023/04/02 04:33:33;;;;;;;;;;;9.30;96.60;;;;;;5048609;28;19932;-78
2023/04/02 04:36:00;;;;;;;;;;;9.20;96.60;;;;;;5051192;28;20418;-78
2023/04/02 04:38:31;;;;;;;;;;;9.20;96.60;;;;;;5046370;28;20425;-79
2023/04/02 04:41:00;;;;;;;;;;;9.20;96.60;;;;;;5043136;28;19928;-77
2023/04/02 04:43:30;;;;;;;;;;;9.20;96.60;;;;;;5049124;28;19966;-78
2023/04/02 04:46:00;;;;;;;;;;;9.20;96.50;;;;;;5047488;28;19940;-78
2023/04/02 04:48:29;;;;;;;;;;;9.20;96.50;;;;;;5050322;28;20355;-77
2023/04/02 04:50:58;;;;;;;;;;;9.20;96.60;;;;;;5036622;28;19936;-78
2023/04/02 04:53:26;;;;;;;;;;;9.20;96.60;;;;;;5042086;28;19929;-79
2023/04/02 04:55:57;;;;;;;;;;;9.20;96.70;;;;;;5043666;28;19948;-79
2023/04/02 04:58:24;;;;;;;;;;;9.20;96.70;;;;;;5039667;28;20031;-78
2023/04/02 05:00:55;;;;;;;;;;;9.20;96.70;;;;;;5034743;28;19928;-78
2023/04/02 05:03:27;;;;;;;;;;;9.20;96.70;;;;;;5040479;28;19929;-78
2023/04/02 05:05:53;;;;;;;;;;;9.20;96.80;;;;;;5040424;28;19936;-76
2023/04/02 05:08:22;;;;;;;;;;;9.20;96.80;;;;;;5038318;28;19928;-77
2023/04/02 05:10:51;;;;;;;;;;;9.20;96.80;;;;;;5036655;28;19932;-78
2023/04/02 05:13:22;;;;;;;;;;;9.20;96.80;;;;;;5045912;28;20470;-78
2023/04/02 05:15:51;;;;;;;;;;;9.20;96.80;;;;;;5046041;28;19935;-77
2023/04/02 05:18:20;;;;;;;;;;;9.20;96.80;;;;;;5039280;28;19929;-78
2023/04/02 05:20:49;;;;;;;;;;;9.20;96.80;;;;;;5037224;28;19940;-78
2023/04/02 05:23:18;;;;;;;;;;;9.20;96.80;;;;;;5037630;28;19933;-78
2023/04/02 05:25:53;;;;;;;;;;;9.20;96.80;;;;;;5038276;28;20581;-79
2023/04/02 05:28:23;;;;;;;;;;;9.20;96.80;;;;;;5048085;28;19929;-78
2023/04/02 05:30:52;;;;;;;;;;;9.20;96.80;;;;;;5053198;28;20858;-78
2023/04/02 05:33:22;;;;;;;;;;;9.20;96.80;;;;;;5040935;28;20336;-79
2023/04/02 05:35:51;;;;;;;;;;;9.20;96.80;;;;;;5037588;28;19960;-78
2023/04/02 05:38:20;;;;;;;;;;;9.20;96.80;;;;;;5046278;28;19933;-81
2023/04/02 05:40:48;;;;;;;;;;;9.20;96.80;;;;;;5041511;28;20024;-79
2023/04/02 05:43:16;;;;;;;;;;;9.10;96.80;;;;;;5040989;28;19928;-80
2023/04/02 05:45:46;;;;;;;;;;;9.10;96.90;;;;;;5036420;28;19938;-78
2023/04/02 05:48:16;;;;;;;;;;;9.10;97.00;;;;;;5037359;28;19937;-79
2023/04/02 05:50:44;;;;;;;;;;;9.10;97.10;;;;;;5035452;28;19933;-79
2023/04/02 05:53:14;;;;;;;;;;;9.10;97.20;;;;;;5040908;28;19967;-78
2023/04/02 05:55:48;;;;;;;;;;;9.10;97.20;;;;;;5038542;28;20621;-79
2023/04/02 05:58:21;;;;;;;;;;;9.10;97.20;;;;;;5039443;28;20153;-79
2023/04/02 06:01:01;;;;;;;;;;;9.10;97.20;;;;;;5037936;28;19928;-78
2023/04/02 06:03:31;;;;;;;;;;;9.10;97.10;;;;;;5037652;28;19950;-79
2023/04/02 06:05:59;;;;;;;;;;;9.20;97.20;;;;;;5038797;28;19933;-78
2023/04/02 06:08:27;;;;;;;;;;;9.10;97.20;;;;;;5037271;28;19935;-77
2023/04/02 06:10:57;;;;;;;;;;;9.10;97.20;;;;;;5037522;28;19933;-79
2023/04/02 06:13:23;;;;;;;;;;;9.10;97.20;;;;;;5050123;28;20002;-78
2023/04/02 06:15:50;;;;;;;;;;;9.10;97.30;;;;;;5039529;28;19942;-76
2023/04/02 06:18:20;;;;;;;;;;;9.10;97.40;;;;;;5041859;28;19932;-77
2023/04/02 06:20:46;;;;;;;;;;;9.10;97.40;;;;;;5048143;28;20472;-77
2023/04/02 06:23:16;;;;;;;;;;;9.10;97.40;;;;;;5044432;28;19937;-76
2023/04/02 06:25:44;;;;;;;;;;;9.10;97.40;;;;;;5044249;28;19936;-76
2023/04/02 06:28:14;;;;;;;;;;;9.10;97.30;;;;;;5049791;28;19929;-76
2023/04/02 06:30:42;;;;;;;;;;;9.10;97.40;;;;;;5046260;28;19933;-77
2023/04/02 06:33:09;;;;;;;;;;;9.10;97.50;;;;;;5044734;28;19928;-77
2023/04/02 06:35:38;;;;;;;;;;;9.10;97.50;;;;;;5048760;28;19932;-77
2023/04/02 06:38:07;;;;;;;;;;;9.10;97.50;;;;;;5042301;28;19929;-75
2023/04/02 06:40:36;;;;;;;;;;;9.10;97.40;;;;;;5039547;28;19928;-76
2023/04/02 06:43:06;;;;;;;;;;;9.10;97.40;;;;;;5047184;28;20395;-76
2023/04/02 06:45:37;;;;;;;;;;;9.10;97.40;;;;;;5046698;28;20011;-76
2023/04/02 06:48:04;;;;;;;;;;;9.10;97.40;;;;;;5049139;28;19932;-77
2023/04/02 06:50:42;;;;;;;;;;;9.10;97.50;;;;;;5053700;28;19935;-75
2023/04/02 06:53:17;;;;;;;;;;;9.10;97.60;;;;;;5035572;28;19928;-80
2023/04/02 06:55:46;;;;;;;;;;;9.10;97.60;;;;;;5035916;28;21324;-75
2023/04/02 06:58:14;;;;;;;;;;;9.10;97.70;;;;;;5040606;28;19929;-75
2023/04/02 07:00:42;;;;;;;;;;;9.10;97.70;;;;;;5037986;28;20397;-79
2023/04/02 07:03:15;;;;;;;;;;;9.10;97.60;;;;;;5032430;28;19933;-80
2023/04/02 07:05:42;;;;;;;;;;;9.10;97.60;;;;;;5049464;28;19939;-78
2023/04/02 07:08:08;;;;;;;;;;;9.10;97.60;;;;;;5041664;28;19932;-76
2023/04/02 07:10:36;;;;;;;;;;;9.10;97.60;;;;;;5037629;28;20394;-78
2023/04/02 07:13:04;;;;;;;;;;;9.20;97.60;;;;;;5038190;28;19929;-78
2023/04/02 07:15:31;;;;;;;;;;;9.10;97.50;;;;;;5036914;28;20011;-77
2023/04/02 07:17:58;;;;;;;;;;;9.10;97.50;;;;;;5039654;28;19937;-74
2023/04/02 07:20:26;;;;;;;;;;;9.20;97.50;;;;;;5047715;28;20164;-78
2023/04/02 07:22:53;;;;;;;;;;;9.20;97.50;;;;;;5038043;28;19928;-79
2023/04/02 07:25:19;;;;;;;;;;;9.20;97.60;;;;;;5038525;28;19929;-77
2023/04/02 07:27:47;;;;;;;;;;;9.20;97.60;;;;;;5046801;28;19979;-79
2023/04/02 07:30:14;;;;;;;;;;;9.20;97.70;;;;;;5048046;28;19935;-79
2023/04/02 07:32:41;;;;;;;;;;;9.20;97.90;;;;;;5042779;28;19936;-79
2023/04/02 07:35:08;;;;;;;;;;;9.20;98.00;;;;;;5051150;28;19935;-78
2023/04/02 07:37:35;;;;;;;;;;;9.20;98.00;;;;;;5046026;28;20346;-77
2023/04/02 07:40:02;;;;;;;;;;;9.20;97.90;;;;;;5037052;28;19934;-76
2023/04/02 07:42:29;;;;;;;;;;;9.20;98.00;;;;;;5044568;28;19951;-79
2023/04/02 07:44:57;;;;;;;;;;;9.20;98.00;;;;;;5035762;28;19936;-79
2023/04/02 07:47:24;;;;;;;;;;;9.10;98.00;;;;;;5035577;28;19937;-78
2023/04/02 07:49:53;;;;;;;;;;;9.20;98.00;;;;;;5035642;28;20803;-77
2023/04/02 07:52:20;;;;;;;;;;;9.30;98.00;;;;;;5034749;28;19978;-75
2023/04/02 07:54:47;;;;;;;;;;;9.30;97.90;;;;;;5038154;28;19935;-75
2023/04/02 07:57:13;;;;;;;;;;;9.30;97.90;;;;;;5034025;28;19934;-78
2023/04/02 07:59:40;;;;;;;;;;;9.30;97.90;;;;;;5029617;28;19932;-76
2023/04/02 08:02:17;;;;;;;;;;;9.30;97.70;;;;;;5033267;28;20464;-79
2023/04/02 08:04:44;;;;;;;;;;;9.30;98.10;;;;;;5036205;28;19933;-77
2023/04/02 08:07:11;;;;;;;;;;;9.30;97.70;;;;;;5038873;28;19929;-78
2023/04/02 08:09:37;;;;;;;;;;;9.40;97.80;;;;;;5037547;28;19936;-76
2023/04/02 08:12:04;;;;;;;;;;;9.40;97.80;;;;;;5039434;28;19929;-78
2023/04/02 08:14:30;;;;;;;;;;;9.40;98.00;;;;;;5037358;28;20018;-78
2023/04/02 08:16:57;;;;;;;;;;;9.30;98.00;;;;;;5035621;28;19955;-79
2023/04/02 08:19:25;;;;;;;;;;;9.40;98.10;;;;;;5032155;28;19936;-77
2023/04/02 08:21:53;;;;;;;;;;;9.40;98.00;;;;;;5034319;28;19933;-79
2023/04/02 08:24:19;;;;;;;;;;;9.40;97.90;;;;;;5033887;28;19964;-74
2023/04/02 08:26:46;;;;;;;;;;;9.40;98.00;;;;;;5037731;28;20837;-75
2023/04/02 08:29:13;;;;;;;;;;;9.40;98.00;;;;;;5035086;28;19932;-77
2023/04/02 08:31:39;;;;;;;;;;;9.40;98.00;;;;;;5040354;28;20074;-74
2023/04/02 08:34:06;;;;;;;;;;;9.40;97.90;;;;;;5032938;28;19924;-77
2023/04/02 08:36:35;;;;;;;;;;;9.40;97.90;;;;;;5033515;28;19925;-78
2023/04/02 08:39:03;;;;;;;;;;;9.50;98.00;;;;;;5035540;28;19929;-78
2023/04/02 08:41:34;;;;;;;;;;;9.50;98.10;;;;;;5037461;28;20011;-77
2023/04/02 08:44:06;;;;;;;;;;;9.50;98.20;;;;;;5037694;28;19933;-77
2023/04/02 08:46:34;;;;;;;;;;;9.40;98.10;;;;;;5041517;28;20310;-75
2023/04/02 08:49:02;;;;;;;;;;;9.50;98.20;;;;;;5032816;28;19968;-78
2023/04/02 08:51:30;;;;;;;;;;;9.50;98.20;;;;;;5040702;28;20934;-75
2023/04/02 08:54:01;;;;;;;;;;;9.50;98.10;;;;;;5040909;28;20006;-75
2023/04/02 08:56:30;;;;;;;;;;;9.60;98.10;;;;;;5044462;28;19929;-76
2023/04/02 08:58:59;;;;;;;;;;;9.60;98.20;;;;;;5044812;28;20556;-78
2023/04/02 09:01:33;;;;;;;;;;;9.60;98.30;;;;;;5041950;28;19933;-75
2023/04/02 09:04:00;;;;;;;;;;;9.70;98.30;;;;;;5044018;28;19933;-75
2023/04/02 09:06:28;;;;;;;;;;;9.70;98.30;;;;;;5043001;28;19936;-78
2023/04/02 09:08:55;;;;;;;;;;;9.70;98.30;;;;;;5046257;28;19929;-78
2023/04/02 09:11:24;;;;;;;;;;;9.70;98.30;;;;;;5043849;28;19929;-77
2023/04/02 09:13:54;;;;;;;;;;;9.80;98.30;;;;;;5044456;28;19925;-75
2023/04/02 09:16:24;;;;;;;;;;;9.80;98.20;;;;;;5040881;28;19929;-76
2023/04/02 09:18:52;;;;;;;;;;;9.80;98.20;;;;;;5036135;28;20696;-76
2023/04/02 09:21:34;;;;;;;;;;;10.00;98.20;;;;;;5034513;28;19935;-75
2023/04/02 09:24:01;;;;;;;;;;;9.90;98.00;;;;;;5027873;28;20645;-76
2023/04/02 09:26:30;;;;;;;;;;;10.00;97.90;;;;;;5030073;28;19951;-76
2023/04/02 09:29:00;;;;;;;;;;;10.00;98.40;;;;;;5040909;28;20008;-77
2023/04/02 09:31:30;;;;;;;;;;;10.00;98.10;;;;;;5041923;28;19929;-77
2023/04/02 09:33:57;;;;;;;;;;;10.10;98.00;;;;;;5036403;28;20708;-76
2023/04/02 09:36:32;;;;;;;;;;;10.10;97.90;;;;;;5036599;28;20016;-75
2023/04/02 09:39:01;;;;;;;;;;;10.10;97.90;;;;;;5038313;28;20015;-77
2023/04/02 09:41:30;;;;;;;;;;;10.10;97.80;;;;;;5040380;28;19928;-77
2023/04/02 09:44:11;;;;;;;;;;;10.20;97.80;;;;;;5046287;28;20128;-75
2023/04/02 09:46:46;;;;;;;;;;;10.20;97.70;;;;;;5039085;28;20542;-74
2023/04/02 09:49:16;;;;;;;;;;;10.20;97.60;;;;;;5038766;28;20387;-76
2023/04/02 09:51:43;;;;;;;;;;;10.20;97.60;;;;;;5035282;28;19929;-77
2023/04/02 09:54:13;;;;;;;;;;;10.30;97.50;;;;;;5034121;28;19932;-75
2023/04/02 09:56:58;;;;;;;;;;;10.30;97.50;;;;;;5039728;28;20302;-74
2023/04/02 09:59:25;;;;;;;;;;;10.30;97.40;;;;;;5037494;28;19954;-77
2023/04/02 10:01:59;;;;;;;;;;;10.30;97.40;;;;;;5029115;28;19929;-78
2023/04/02 10:04:44;;;;;;;;;;;10.30;97.30;;;;;;5034781;28;19928;-75
2023/04/02 10:07:31;;;;;;;;;;;10.40;97.20;;;;;;5037214;28;19933;-75
2023/04/02 10:09:58;;;;;;;;;;;10.40;97.20;;;;;;5032695;28;19929;-77
2023/04/02 10:12:26;;;;;;;;;;;10.50;97.10;;;;;;5039940;28;21398;-77
2023/04/02 10:14:56;;;;;;;;;;;10.50;97.00;;;;;;5038416;28;21210;-75
2023/04/02 10:17:24;;;;;;;;;;;10.60;96.90;;;;;;5038998;28;19936;-77
2023/04/02 10:19:51;;;;;;;;;;;10.60;96.80;;;;;;5035742;28;19936;-77
2023/04/02 10:22:19;;;;;;;;;;;10.60;96.60;;;;;;5034636;28;20474;-78
2023/04/02 10:24:46;;;;;;;;;;;10.70;96.50;;;;;;5035381;28;19933;-75
2023/04/02 10:27:17;;;;;;;;;;;10.60;96.40;;;;;;5035813;28;19925;-75
2023/04/02 10:29:48;;;;;;;;;;;10.70;96.20;;;;;;5037403;28;20515;-77
2023/04/02 10:32:18;;;;;;;;;;;10.80;96.10;;;;;;5037670;28;19983;-77
2023/04/02 10:34:50;;;;;;;;;;;10.90;96.10;;;;;;5035425;28;19929;-75
2023/04/02 10:37:30;;;;;;;;;;;10.90;95.90;;;;;;5038427;28;19928;-76
2023/04/02 10:39:57;;;;;;;;;;;10.90;95.80;;;;;;5031407;28;19943;-77
2023/04/02 10:42:26;;;;;;;;;;;11.00;95.60;;;;;;5038416;28;19932;-77
2023/04/02 10:44:55;;;;;;;;;;;11.00;95.50;;;;;;5033823;28;19952;-76
2023/04/02 10:47:31;;;;;;;;;;;11.00;95.50;;;;;;5031913;28;19974;-78
2023/04/02 10:50:03;;;;;;;;;;;11.10;95.40;;;;;;5035019;28;19945;-75
2023/04/02 10:52:31;;;;;;;;;;;11.10;95.30;;;;;;5034999;28;19933;-76
2023/04/02 10:54:59;;;;;;;;;;;11.10;95.30;;;;;;5038326;28;19928;-79
2023/04/02 10:57:33;;;;;;;;;;;11.10;95.20;;;;;;5040100;28;19940;-75
2023/04/02 11:00:06;;;;;;;;;;;11.10;95.20;;;;;;5037818;28;19976;-75
2023/04/02 11:02:36;;;;;;;;;;;11.10;95.20;;;;;;5037450;28;19933;-75
2023/04/02 11:05:07;;;;;;;;;;;11.10;95.20;;;;;;5041205;28;20171;-79
2023/04/02 11:07:38;;;;;;;;;;;11.20;95.20;;;;;;5036655;28;20021;-76
2023/04/02 11:10:06;;;;;;;;;;;11.10;95.10;;;;;;5040015;28;19928;-75
2023/04/02 11:12:35;;;;;;;;;;;11.10;95.10;;;;;;5039883;28;19928;-76
2023/04/02 11:15:04;;;;;;;;;;;11.10;95.20;;;;;;5028887;28;19968;-76
2023/04/02 11:17:30;;;;;;;;;;;11.20;95.20;;;;;;5030829;28;19933;-75
2023/04/02 11:20:22;;;;;;;;;;;11.10;95.20;;;;;;5035181;28;19929;-76
2023/04/02 11:25:43;;;;;;;;;;;11.10;95.30;;;;;;5067538;27;19925;-77
2023/04/02 11:28:13;;;;;;;;;;;11.20;95.30;;;;;;5074109;28;19935;-74
2023/04/02 11:30:41;;;;;;;;;;;11.20;95.30;;;;;;5062187;28;19941;-75
2023/04/02 11:33:22;;;;;;;;;;;11.20;95.40;;;;;;5027496;28;19933;-76
2023/04/02 11:35:49;;;;;;;;;;;11.20;95.40;;;;;;5020863;28;19933;-75
2023/04/02 11:38:34;;;;;;;;;;;11.20;95.60;;;;;;5033779;28;20247;-76
2023/04/02 11:41:02;;;;;;;;;;;11.20;95.50;;;;;;5031390;28;19940;-76
2023/04/02 11:43:47;;;;;;;;;;;11.30;95.50;;;;;;5035684;28;19929;-77
2023/04/02 11:46:33;;;;;;;;;;;11.30;95.50;;;;;;5025211;28;19940;-77
2023/04/02 11:49:14;;;;;;;;;;;11.30;95.50;;;;;;5032632;28;19933;-75
2023/04/02 11:51:48;;;;;;;;;;;11.40;95.50;;;;;;5029679;28;19937;-75
2023/04/02 11:54:21;;;;;;;;;;;11.40;95.40;;;;;;5035902;28;19964;-76
2023/04/02 11:56:52;;;;;;;;;;;11.40;95.30;;;;;;5025958;28;20011;-74
2023/04/02 11:59:22;;;;;;;;;;;11.40;95.20;;;;;;5024578;28;20425;-69
2023/04/02 12:01:56;;;;;;;;;;;11.50;95.20;;;;;;5027565;28;19976;-70
2023/04/02 12:04:37;;;;;;;;;;;11.50;95.20;;;;;;5022852;28;19933;-70
2023/04/02 12:07:11;;;;;;;;;;;11.50;95.10;;;;;;5031088;28;20020;-72
2023/04/02 12:09:44;;;;;;;;;;;11.50;95.00;;;;;;5030466;28;19929;-70
2023/04/02 12:12:17;;;;;;;;;;;11.60;94.90;;;;;;5025673;28;19936;-68
2023/04/02 12:14:45;;;;;;;;;;;11.60;94.80;;;;;;5031485;28;19938;-69
2023/04/02 12:17:23;;;;;;;;;;;11.60;94.60;;;;;;5050028;28;19990;-69
2023/04/02 12:19:51;;;;;;;;;;;11.60;94.40;;;;;;5050180;28;19935;-68
2023/04/02 12:22:21;;;;;;;;;;;11.70;94.30;;;;;;5054606;28;19929;-70
2023/04/02 12:24:49;;;;;;;;;;;11.80;94.20;;;;;;5067042;28;19944;-70
2023/04/02 12:27:21;;;;;;;;;;;11.90;94.00;;;;;;5075298;28;19928;-69
2023/04/02 12:29:48;;;;;;;;;;;11.90;94.00;;;;;;5073149;28;19931;-71
2023/04/02 12:32:24;;;;;;;;;;;12.00;93.70;;;;;;5070961;28;20038;-72
2023/04/02 12:34:51;;;;;;;;;;;12.10;93.30;;;;;;5069759;28;19932;-69
2023/04/02 12:37:20;;;;;;;;;;;12.20;93.20;;;;;;5052538;28;19936;-71
2023/04/02 12:39:51;;;;;;;;;;;12.30;93.10;;;;;;5056193;28;19932;-69
2023/04/02 12:42:27;;;;;;;;;;;12.40;93.00;;;;;;5049881;28;20039;-71
2023/04/02 12:44:53;;;;;;;;;;;12.40;92.80;;;;;;5056514;28;19960;-69
2023/04/02 12:47:20;;;;;;;;;;;12.40;92.70;;;;;;5059969;28;20358;-68
2023/04/02 12:49:47;;;;;;;;;;;12.50;92.70;;;;;;5052105;28;19936;-69
2023/04/02 12:52:14;;;;;;;;;;;12.50;92.70;;;;;;5059203;28;19935;-71
2023/04/02 12:54:44;;;;;;;;;;;12.40;92.90;;;;;;5056774;28;20028;-68
2023/04/02 12:57:21;;;;;;;;;;;12.40;93.10;;;;;;5059125;28;19928;-69
2023/04/02 12:59:49;;;;;;;;;;;12.40;93.30;;;;;;5055670;28;19971;-71
2023/04/02 13:02:18;;;;;;;;;;;12.30;93.50;;;;;;5051012;28;19932;-70
2023/04/02 13:04:48;;;;;;;;;;;12.30;93.90;;;;;;5059288;28;19928;-71
2023/04/02 13:07:16;;;;;;;;;;;12.30;94.10;;;;;;5060294;28;20037;-71
2023/04/02 13:09:45;;;;;;;;;;;12.20;94.30;;;;;;5054097;28;20019;-72
2023/04/02 13:12:23;;;;;;;;;;;12.20;94.50;;;;;;5055712;28;20011;-70
2023/04/02 13:14:53;;;;;;;;;;;12.10;94.60;;;;;;5057825;28;19940;-68
2023/04/02 13:17:39;;;;;;;;;;;12.10;94.60;;;;;;5054231;28;20016;-69
2023/04/02 13:20:24;;;;;;;;;;;12.10;94.70;;;;;;5056715;28;20389;-71
2023/04/02 13:22:51;;;;;;;;;;;12.10;94.70;;;;;;5053743;28;20420;-68
2023/04/02 13:25:18;;;;;;;;;;;12.10;94.70;;;;;;5052437;28;20683;-72
2023/04/02 13:27:44;;;;;;;;;;;12.00;94.70;;;;;;5054759;28;19928;-70
2023/04/02 13:30:20;;;;;;;;;;;12.00;94.80;;;;;;5057712;28;20009;-69
2023/04/02 13:32:47;;;;;;;;;;;12.00;94.90;;;;;;5053973;28;19931;-71
2023/04/02 13:35:13;;;;;;;;;;;12.00;94.80;;;;;;5058352;28;20035;-69
2023/04/02 13:37:40;;;;;;;;;;;12.00;94.80;;;;;;5059470;28;19928;-69
2023/04/02 13:40:07;;;;;;;;;;;12.00;94.80;;;;;;5055550;28;19933;-72
2023/04/02 13:42:34;;;;;;;;;;;12.00;94.80;;;;;;5054333;28;19931;-71
2023/04/02 13:45:00;;;;;;;;;;;11.90;94.70;;;;;;5050033;28;20354;-70
2023/04/02 13:47:28;;;;;;;;;;;11.90;94.70;;;;;;5056593;28;20136;-72
2023/04/02 13:49:55;;;;;;;;;;;11.90;94.70;;;;;;5053419;28;19932;-70
2023/04/02 13:52:21;;;;;;;;;;;11.90;94.70;;;;;;5058481;28;19924;-70
2023/04/02 13:54:49;;;;;;;;;;;11.90;94.70;;;;;;5050610;28;19933;-73
2023/04/02 13:57:16;;;;;;;;;;;11.90;94.70;;;;;;5059094;28;20164;-69
2023/04/02 13:59:43;;;;;;;;;;;11.90;94.60;;;;;;5052406;28;19956;-68
2023/04/02 14:02:12;;;;;;;;;;;11.90;94.60;;;;;;5055660;28;19971;-67
2023/04/02 14:04:42;;;;;;;;;;;11.90;94.60;;;;;;5051829;28;19928;-69
2023/04/02 14:07:15;;;;;;;;;;;11.90;94.50;;;;;;5060631;28;19932;-69
2023/04/02 14:09:46;;;;;;;;;;;11.90;94.40;;;;;;5058700;28;20306;-69
2023/04/02 14:12:16;;;;;;;;;;;11.90;94.30;;;;;;5048238;28;20161;-71
2023/04/02 14:14:52;;;;;;;;;;;11.80;94.20;;;;;;5052591;28;19929;-70
2023/04/02 14:17:22;;;;;;;;;;;11.90;94.20;;;;;;5055713;28;19956;-70
2023/04/02 14:20:04;;;;;;;;;;;11.80;94.10;;;;;;5052379;28;19928;-68
2023/04/02 14:22:35;;;;;;;;;;;11.80;94.10;;;;;;5054140;28;19939;-74
2023/04/02 14:25:06;;;;;;;;;;;11.80;94.10;;;;;;5056279;28;19928;-74
2023/04/02 14:27:37;;;;;;;;;;;11.80;94.10;;;;;;5058586;28;19935;-71
2023/04/02 14:30:07;;;;;;;;;;;11.80;94.10;;;;;;5055274;28;19931;-72
2023/04/02 14:32:38;;;;;;;;;;;11.80;94.00;;;;;;5053389;28;19929;-73
2023/04/02 14:35:12;;;;;;;;;;;11.80;94.00;;;;;;5052071;28;19995;-74
2023/04/02 14:37:41;;;;;;;;;;;11.80;94.00;;;;;;5059532;28;19928;-69
2023/04/02 14:40:13;;;;;;;;;;;11.80;93.90;;;;;;5053538;28;19933;-70
2023/04/02 14:42:41;;;;;;;;;;;11.80;93.90;;;;;;5053901;28;19935;-70
2023/04/02 14:45:09;;;;;;;;;;;11.80;93.90;;;;;;5057387;28;19933;-73